Time;durP1;ratioP1;P1;durP2;ratioP2;P2;SDS_P1;SDS_P2;PMS_P1;PMS_P2;Temp;Humidity;BMP_temperature;BMP_pressure;BME280_temperature;BME280_humidity;BME280_pressure;Samples;Min_cycle;Max_cycle;Signal;HPM_P1;HPM_P2
2022/01/01 00:00:33;;;;;;;35.67;28.97;;;;;;;5.14;100.00;97274.03;5007413;28;105531;-59
2022/01/01 00:03:00;;;;;;;30.83;24.70;;;;;;;4.86;100.00;97281.16;5011758;28;102080;-59
2022/01/01 00:05:28;;;;;;;34.60;25.40;;;;;;;4.91;100.00;97281.41;5007678;28;104225;-59
2022/01/01 00:07:55;;;;;;;35.10;26.97;;;;;;;4.89;100.00;97285.25;5006961;28;101933;-59
2022/01/01 00:10:22;;;;;;;51.50;39.13;;;;;;;4.75;100.00;97278.28;5008157;28;105302;-59
2022/01/01 00:12:49;;;;;;;55.77;42.33;;;;;;;4.86;100.00;97275.91;5007455;28;105764;-59
2022/01/01 00:15:18;;;;;;;62.50;47.27;;;;;;;4.96;100.00;97281.66;5008066;28;101939;-59
2022/01/01 00:17:52;;;;;;;71.97;51.50;;;;;;;5.06;100.00;97274.22;5008248;28;104056;-59
2022/01/01 00:20:19;;;;;;;67.47;50.77;;;;;;;5.04;100.00;97278.88;5007301;28;105737;-59
2022/01/01 00:22:47;;;;;;;68.70;49.27;;;;;;;5.15;100.00;97274.84;5007880;28;101959;-59
2022/01/01 00:25:14;;;;;;;69.53;48.43;;;;;;;5.12;100.00;97270.00;5044567;27;105295;-59
2022/01/01 00:27:42;;;;;;;72.43;52.23;;;;;;;5.05;100.00;97264.69;5007927;28;101937;-59
2022/01/01 00:30:10;;;;;;;92.47;60.17;;;;;;;5.12;100.00;97272.63;5007904;28;105413;-59
2022/01/01 00:32:39;;;;;;;97.90;61.20;;;;;;;5.11;100.00;97270.97;5007145;28;105833;-59
2022/01/01 00:35:08;;;;;;;73.27;51.30;;;;;;;5.08;100.00;97274.81;5041474;27;101848;-59
2022/01/01 00:37:35;;;;;;;67.83;47.60;;;;;;;5.07;100.00;97275.03;5009257;28;102522;-59
2022/01/01 00:40:02;;;;;;;72.60;52.33;;;;;;;4.91;100.00;97278.78;5007181;28;104982;-59
2022/01/01 00:42:30;;;;;;;73.97;52.53;;;;;;;4.90;100.00;97281.59;5007571;28;101951;-59
2022/01/01 00:44:57;;;;;;;78.60;56.00;;;;;;;4.73;100.00;97285.53;5007547;28;106608;-59
2022/01/01 00:47:25;;;;;;;76.83;56.63;;;;;;;4.64;100.00;97291.97;5010564;28;104687;-59
2022/01/01 00:49:52;;;;;;;60.13;42.73;;;;;;;4.66;100.00;97290.78;5008850;28;102990;-59
2022/01/01 00:52:22;;;;;;;48.40;35.27;;;;;;;4.72;100.00;97302.34;5007204;28;105968;-58
2022/01/01 00:54:50;;;;;;;56.60;41.27;;;;;;;4.63;100.00;97306.94;5041095;27;101920;-59
2022/01/01 00:57:17;;;;;;;68.90;50.23;;;;;;;4.49;100.00;97307.03;5007013;28;105008;-59
2022/01/01 00:59:44;;;;;;;65.37;47.13;;;;;;;4.47;100.00;97301.16;5007122;28;105423;-59
2022/01/01 01:02:12;;;;;;;66.40;49.83;;;;;;;4.48;100.00;97303.59;5007240;28;101908;-59
2022/01/01 01:04:39;;;;;;;61.60;43.10;;;;;;;4.53;100.00;97313.56;5007576;28;105160;-59
2022/01/01 01:07:06;;;;;;;46.87;34.77;;;;;;;4.60;100.00;97312.63;5007933;28;103211;-59
2022/01/01 01:09:36;;;;;;;46.23;33.40;;;;;;;4.66;100.00;97314.50;5010586;28;101950;-59
2022/01/01 01:12:03;;;;;;;45.83;32.63;;;;;;;4.59;100.00;97310.16;5006837;28;105106;-59
2022/01/01 01:14:39;;;;;;;46.87;28.90;;;;;;;4.68;100.00;97314.28;5007217;28;102284;-59
2022/01/01 01:17:08;;;;;;;43.97;31.90;;;;;;;4.58;100.00;97322.50;5007312;28;103990;-59
2022/01/01 01:19:35;;;;;;;46.27;32.43;;;;;;;4.68;100.00;97324.81;5008262;28;105831;-59
2022/01/01 01:22:02;;;;;;;42.33;28.80;;;;;;;4.65;100.00;97330.47;5010781;28;102008;-59
2022/01/01 01:24:29;;;;;;;43.97;33.30;;;;;;;4.37;100.00;97330.44;5010711;28;105560;-59
2022/01/01 01:27:01;;;;;;;43.40;31.77;;;;;;;4.39;100.00;97340.78;5043774;27;103750;-59
2022/01/01 01:29:29;;;;;;;36.67;27.60;;;;;;;4.43;100.00;97347.31;5010459;28;102222;-59
2022/01/01 01:31:57;;;;;;;37.23;25.30;;;;;;;4.41;100.00;97344.84;5014523;28;104307;-59
2022/01/01 01:34:24;;;;;;;31.40;23.27;;;;;;;4.42;100.00;97345.69;5010592;28;101959;-59
2022/01/01 01:36:51;;;;;;;38.27;26.77;;;;;;;4.43;100.00;97347.31;5011508;28;101703;-59
2022/01/01 01:39:18;;;;;;;31.57;24.03;;;;;;;4.46;100.00;97350.38;5009838;28;104242;-59
2022/01/01 01:41:46;;;;;;;32.50;24.57;;;;;;;4.50;100.00;97354.28;5010628;28;101986;-59
2022/01/01 01:44:32;;;;;;;32.10;23.87;;;;;;;4.52;100.00;97356.69;5010198;28;103970;-59
2022/01/01 01:47:00;;;;;;;36.13;26.43;;;;;;;4.51;100.00;97355.06;5043502;27;105647;-59
2022/01/01 01:49:27;;;;;;;36.23;25.80;;;;;;;4.48;100.00;97350.19;5010318;28;101866;-59
2022/01/01 01:51:55;;;;;;;37.30;25.73;;;;;;;4.48;100.00;97356.25;5010024;28;104743;-60
2022/01/01 01:54:22;;;;;;;35.63;27.60;;;;;;;4.44;100.00;97357.66;5014047;28;101866;-59
2022/01/01 01:56:49;;;;;;;36.70;26.80;;;;;;;4.48;100.00;97360.72;5010066;28;104840;-59
2022/01/01 01:59:17;;;;;;;37.50;26.63;;;;;;;4.49;100.00;97362.34;5009529;28;105040;-59
2022/01/01 02:01:47;;;;;;;36.90;27.67;;;;;;;4.41;100.00;97371.19;5009843;28;101912;-59
2022/01/01 02:04:14;;;;;;;39.80;28.87;;;;;;;4.35;100.00;97369.31;5009988;28;106438;-59
2022/01/01 02:06:42;;;;;;;41.87;29.20;;;;;;;4.29;100.00;97377.13;5009208;28;103967;-59
2022/01/01 02:09:10;;;;;;;40.30;29.23;;;;;;;4.30;100.00;97368.22;5043357;27;101831;-59
2022/01/01 02:11:39;;;;;;;43.70;31.47;;;;;;;4.30;100.00;97365.59;5009796;28;105814;-59
2022/01/01 02:14:19;;;;;;;41.47;29.90;;;;;;;4.31;100.00;97367.25;5012812;28;105457;-59
2022/01/01 02:19:49;;;;;;;39.23;28.50;;;;;;;4.27;100.00;97372.03;5009463;28;105870;-59
2022/01/01 02:22:18;;;;;;;39.13;28.03;;;;;;;4.33;100.00;97363.44;5043413;27;101925;-59
2022/01/01 02:24:45;;;;;;;39.70;28.90;;;;;;;4.33;100.00;97367.88;5009522;28;104287;-59
2022/01/01 02:27:12;;;;;;;40.97;30.33;;;;;;;4.23;100.00;97377.88;5009370;28;104093;-59
2022/01/01 02:29:41;;;;;;;43.17;31.00;;;;;;;4.26;100.00;97382.78;5009702;28;102168;-59
2022/01/01 02:32:10;;;;;;;41.53;28.70;;;;;;;4.25;100.00;97399.59;5008838;28;103947;-59
2022/01/01 02:34:38;;;;;;;44.93;31.17;;;;;;;4.25;100.00;97391.69;5010158;28;102894;-59
2022/01/01 02:37:06;;;;;;;40.67;30.53;;;;;;;4.14;100.00;97381.66;5014468;28;101818;-59
2022/01/01 02:39:36;;;;;;;38.37;26.97;;;;;;;4.05;100.00;97391.44;5008755;28;104927;-59
2022/01/01 02:42:07;;;;;;;40.37;28.47;;;;;;;3.93;100.00;97392.13;5009675;28;102144;-59
2022/01/01 02:44:33;;;;;;;42.13;29.93;;;;;;;3.99;100.00;97391.41;5009399;28;103746;-59
2022/01/01 02:47:01;;;;;;;34.93;25.90;;;;;;;3.72;100.00;97394.69;5008876;28;103935;-59
2022/01/01 02:49:29;;;;;;;37.13;26.40;;;;;;;3.61;100.00;97384.66;5009417;28;101930;-59
2022/01/01 02:51:55;;;;;;;41.17;30.07;;;;;;;3.50;100.00;97385.91;5043009;27;105202;-59
2022/01/01 02:54:24;;;;;;;42.00;30.80;;;;;;;3.59;100.00;97386.63;5042421;27;105762;-59
2022/01/01 02:56:54;;;;;;;44.67;30.50;;;;;;;3.71;100.00;97387.81;5009039;28;102017;-59
2022/01/01 02:59:21;;;;;;;44.77;32.00;;;;;;;3.74;100.00;97387.44;5045859;27;104956;-59
2022/01/01 03:01:49;;;;;;;42.53;29.27;;;;;;;3.70;100.00;97392.25;5025447;28;102127;-59
2022/01/01 03:04:16;;;;;;;42.27;30.53;;;;;;;3.72;100.00;97386.81;5009196;28;105220;-59
2022/01/01 03:06:44;;;;;;;42.87;31.13;;;;;;;3.69;100.00;97376.66;5009422;28;102848;-59
2022/01/01 03:09:10;;;;;;;42.03;30.13;;;;;;;3.72;100.00;97384.97;5008851;28;101822;-59
2022/01/01 03:11:37;;;;;;;40.40;29.80;;;;;;;3.71;100.00;97382.56;5009113;28;104893;-59
2022/01/01 03:14:06;;;;;;;42.80;30.03;;;;;;;3.76;100.00;97380.19;5008337;28;105254;-59
2022/01/01 03:16:34;;;;;;;41.33;29.10;;;;;;;3.67;100.00;97389.16;5009099;28;102047;-59
2022/01/01 03:19:02;;;;;;;35.97;27.77;;;;;;;3.69;100.00;97387.16;5010177;28;102542;-59
2022/01/01 03:21:29;;;;;;;36.30;27.50;;;;;;;3.67;100.00;97383.91;5011658;28;105060;-59
2022/01/01 03:23:56;;;;;;;44.03;29.13;;;;;;;3.74;100.00;97387.44;5008822;28;103611;-59
2022/01/01 03:26:23;;;;;;;38.00;28.13;;;;;;;3.70;100.00;97381.72;5008004;28;105269;-59
2022/01/01 03:28:50;;;;;;;37.60;27.53;;;;;;;3.69;100.00;97389.78;5008684;28;101899;-59
2022/01/01 03:31:19;;;;;;;39.97;26.63;;;;;;;3.70;100.00;97381.72;5025470;28;105184;-59
2022/01/01 03:33:48;;;;;;;35.70;28.07;;;;;;;3.71;100.00;97383.34;5009405;28;102964;-59
2022/01/01 03:36:16;;;;;;;37.80;27.13;;;;;;;3.71;100.00;97387.81;5008317;28;101937;-59
2022/01/01 03:38:43;;;;;;;34.67;25.90;;;;;;;3.66;100.00;97384.91;5042362;27;105650;-59
2022/01/01 03:41:11;;;;;;;34.30;25.63;;;;;;;3.74;100.00;97379.53;5041658;27;105053;-59
2022/01/01 03:43:38;;;;;;;33.33;25.33;;;;;;;3.71;100.00;97387.81;5011754;28;101878;-59
2022/01/01 03:46:05;;;;;;;34.50;25.17;;;;;;;3.71;100.00;97395.72;5008139;28;103825;-59
2022/01/01 03:48:35;;;;;;;36.80;26.70;;;;;;;3.84;100.00;97395.88;5008289;28;101931;-59
2022/01/01 03:51:02;;;;;;;32.33;23.80;;;;;;;3.77;100.00;97397.59;5008365;28;104138;-59
2022/01/01 03:53:29;;;;;;;36.00;26.13;;;;;;;3.77;100.00;97393.13;5007627;28;105894;-60
2022/01/01 03:55:56;;;;;;;32.27;24.30;;;;;;;3.80;100.00;97402.47;5008322;28;102122;-59
2022/01/01 03:58:23;;;;;;;34.13;26.17;;;;;;;3.79;100.00;97400.84;5008388;28;103791;-59
2022/01/01 04:00:51;;;;;;;33.53;25.07;;;;;;;3.80;100.00;97407.75;5007137;28;105333;-59
2022/01/01 04:03:18;;;;;;;33.97;26.23;;;;;;;3.78;100.00;97393.97;5011342;28;101932;-59
2022/01/01 04:05:47;;;;;;;32.30;23.97;;;;;;;3.68;100.00;97403.94;5007441;28;105280;-59
2022/01/01 04:08:15;;;;;;;32.00;25.20;;;;;;;3.72;100.00;97397.34;5008220;28;101882;-59
2022/01/01 04:10:43;;;;;;;35.63;25.77;;;;;;;3.73;100.00;97404.22;5008169;28;105124;-59
2022/01/01 04:13:11;;;;;;;29.97;23.80;;;;;;;3.70;100.00;97408.03;5007333;28;104921;-59
2022/01/01 04:15:41;;;;;;;31.00;24.13;;;;;;;3.67;100.00;97416.28;5007879;28;101996;-59
2022/01/01 04:18:11;;;;;;;32.37;24.30;;;;;;;3.64;100.00;97407.94;5008190;28;104048;-59
2022/01/01 04:20:38;;;;;;;31.47;24.13;;;;;;;3.67;100.00;97418.09;5007466;28;105277;-59
2022/01/01 04:23:11;;;;;;;34.87;24.63;;;;;;;3.63;100.00;97414.19;5041487;27;101933;-59
2022/01/01 04:25:39;;;;;;;30.80;24.53;;;;;;;3.66;100.00;97411.22;5012582;28;103112;-59
2022/01/01 04:28:07;;;;;;;29.30;22.63;;;;;;;3.61;100.00;97421.47;5007985;28;101732;-59
2022/01/01 04:30:33;;;;;;;31.77;23.23;;;;;;;3.66;100.00;97416.47;5007928;28;103781;-59
2022/01/01 04:33:00;;;;;;;32.07;24.23;;;;;;;3.69;100.00;97416.09;5007420;28;104963;-59
2022/01/01 04:35:28;;;;;;;30.87;24.10;;;;;;;3.74;100.00;97419.81;5007859;28;101868;-59
2022/01/01 04:37:55;;;;;;;34.13;24.23;;;;;;;3.59;100.00;97412.91;5007581;28;103782;-59
2022/01/01 04:40:24;;;;;;;29.90;22.70;;;;;;;3.56;100.00;97419.38;5007242;28;105289;-59
2022/01/01 04:42:51;;;;;;;31.13;24.07;;;;;;;3.55;100.00;97409.84;5007606;28;101817;-59
2022/01/01 04:45:18;;;;;;;27.70;21.87;;;;;;;3.35;100.00;97402.69;5041297;27;104044;-59
2022/01/01 04:47:45;;;;;;;29.67;23.47;;;;;;;3.39;100.00;97409.22;5010518;28;105325;-59
2022/01/01 04:50:12;;;;;;;29.50;22.37;;;;;;;3.26;100.00;97415.09;5009212;28;102905;-59
2022/01/01 04:52:39;;;;;;;29.50;23.27;;;;;;;3.36;100.00;97415.66;5007014;28;104907;-59
2022/01/01 04:55:07;;;;;;;30.80;22.80;;;;;;;3.40;100.00;97411.69;5009911;28;101934;-59
2022/01/01 04:57:35;;;;;;;31.63;23.43;;;;;;;3.43;100.00;97410.47;5011045;28;103723;-59
2022/01/01 05:00:04;;;;;;;27.43;22.33;;;;;;;3.16;100.00;97400.59;5009845;28;105407;-59
2022/01/01 05:02:32;;;;;;;29.53;22.73;;;;;;;3.13;100.00;97404.41;5010947;28;101793;-60
2022/01/01 05:05:00;;;;;;;28.77;22.13;;;;;;;3.19;100.00;97411.56;5011066;28;104922;-59
2022/01/01 05:07:28;;;;;;;30.30;22.57;;;;;;;3.07;100.00;97414.81;5011723;28;102531;-59
2022/01/01 05:09:55;;;;;;;32.00;22.47;;;;;;;2.97;100.00;97406.34;5013422;28;101935;-59
2022/01/01 05:12:22;;;;;;;29.97;23.00;;;;;;;3.07;100.00;97422.69;5010234;28;105835;-59
2022/01/01 05:14:52;;;;;;;34.67;24.83;;;;;;;3.11;100.00;97422.16;5010812;28;102116;-59
2022/01/01 05:17:20;;;;;;;33.10;24.60;;;;;;;3.20;100.00;97421.09;5010583;28;105359;-59
2022/01/01 05:19:47;;;;;;;32.53;25.20;;;;;;;3.18;100.00;97422.25;5009843;28;105182;-59
2022/01/01 05:22:14;;;;;;;34.47;25.23;;;;;;;3.25;100.00;97423.16;5010959;28;101915;-59
2022/01/01 05:24:41;;;;;;;35.83;26.07;;;;;;;3.27;100.00;97422.00;5010512;28;105592;-59
2022/01/01 05:27:09;;;;;;;36.77;26.07;;;;;;;3.29;100.00;97425.25;5009949;28;105381;-59
2022/01/01 05:29:36;;;;;;;34.07;24.23;;;;;;;3.25;100.00;97433.69;5010737;28;101888;-59
2022/01/01 05:32:05;;;;;;;34.67;25.03;;;;;;;3.21;100.00;97435.84;5013602;28;105101;-59
2022/01/01 05:34:32;;;;;;;34.10;25.03;;;;;;;3.23;100.00;97435.69;5010605;28;102051;-59
2022/01/01 05:36:59;;;;;;;32.00;23.53;;;;;;;3.20;100.00;97430.75;5010478;28;105135;-59
2022/01/01 05:39:26;;;;;;;30.93;23.77;;;;;;;3.22;100.00;97429.59;5009692;28;105574;-59
2022/01/01 05:41:54;;;;;;;33.20;23.27;;;;;;;3.26;100.00;97430.03;5010494;28;101991;-59
2022/01/01 05:44:22;;;;;;;31.43;22.60;;;;;;;3.26;100.00;97430.88;5010304;28;105178;-59
2022/01/01 05:46:50;;;;;;;27.03;21.23;;;;;;;2.97;100.00;97432.63;5011336;28;102543;-59
2022/01/01 05:49:18;;;;;;;25.40;19.37;;;;;;;2.85;100.00;97426.19;5010272;28;101856;-59
2022/01/01 05:51:46;;;;;;;23.93;19.00;;;;;;;2.87;100.00;97418.91;5010361;28;105562;-59
2022/01/01 05:54:13;;;;;;;25.30;18.83;;;;;;;2.73;100.00;97423.13;5013032;28;105372;-59
2022/01/01 05:56:40;;;;;;;28.70;20.67;;;;;;;2.53;100.00;97421.16;5043823;27;104122;-59
2022/01/01 05:59:08;;;;;;;24.90;18.93;;;;;;;2.62;100.00;97430.63;5009646;28;104186;-59
2022/01/01 06:01:35;;;;;;;22.97;18.50;;;;;;;2.42;100.00;97424.22;4992841;28;102415;-59
2022/01/01 06:04:02;;;;;;;26.90;20.50;;;;;;;2.52;100.00;97432.69;5010167;28;104914;-59
2022/01/01 06:06:32;;;;;;;24.63;19.23;;;;;;;2.39;100.00;97429.78;5008114;28;105299;-59
2022/01/01 06:09:00;;;;;;;23.97;19.00;;;;;;;2.38;100.00;97431.63;5009927;28;101784;-59
2022/01/01 06:11:28;;;;;;;23.57;19.10;;;;;;;2.41;100.00;97433.06;5009866;28;104142;-59
2022/01/01 06:13:55;;;;;;;28.47;20.67;;;;;;;2.42;100.00;97432.09;5012860;28;105377;-59
2022/01/01 06:16:22;;;;;;;27.07;21.43;;;;;;;2.45;100.00;97443.03;5043598;27;104142;-59
2022/01/01 06:18:49;;;;;;;27.17;19.77;;;;;;;2.38;100.00;97438.66;5010748;28;102830;-59
2022/01/01 06:21:16;;;;;;;26.73;19.80;;;;;;;2.29;100.00;97440.53;5009778;28;102059;-59
2022/01/01 06:23:45;;;;;;;28.97;21.13;;;;;;;2.35;100.00;97446.91;5009629;28;104776;-59
2022/01/01 06:26:12;;;;;;;25.10;20.13;;;;;;;2.29;100.00;97450.22;5009337;28;105619;-59
2022/01/01 06:28:40;;;;;;;24.73;19.53;;;;;;;2.18;100.00;97445.38;5043358;27;101939;-59
2022/01/01 06:31:07;;;;;;;25.23;19.80;;;;;;;2.28;100.00;97449.38;5009859;28;104368;-59
2022/01/01 06:33:34;;;;;;;25.33;18.73;;;;;;;2.38;100.00;97450.00;5009083;28;105485;-59
2022/01/01 06:36:01;;;;;;;25.67;19.47;;;;;;;2.10;100.00;97450.63;5012962;28;101869;-59
2022/01/01 06:38:28;;;;;;;25.03;19.67;;;;;;;2.18;100.00;97453.22;5008925;28;105318;-59
2022/01/01 06:40:57;;;;;;;24.13;18.70;;;;;;;2.20;100.00;97446.00;5009593;28;102034;-59
2022/01/01 06:43:24;;;;;;;27.20;20.93;;;;;;;2.18;100.00;97450.63;5009328;28;104921;-59
2022/01/01 06:45:51;;;;;;;25.00;19.17;;;;;;;2.20;100.00;97451.25;5008918;28;105217;-59
2022/01/01 06:48:19;;;;;;;26.73;20.03;;;;;;;2.34;100.00;97453.94;5009254;28;101885;-59
2022/01/01 06:50:45;;;;;;;23.10;18.77;;;;;;;2.36;100.00;97456.41;5009507;28;104346;-59
2022/01/01 06:53:12;;;;;;;25.30;18.90;;;;;;;2.33;100.00;97449.69;5008904;28;105406;-59
2022/01/01 06:55:40;;;;;;;25.53;19.77;;;;;;;2.20;100.00;97453.88;5010592;28;101791;-59
2022/01/01 06:58:08;;;;;;;24.40;19.43;;;;;;;2.24;100.00;97440.22;5011983;28;104923;-59
2022/01/01 07:00:37;;;;;;;24.60;17.83;;;;;;;2.26;100.00;97442.69;5008841;28;101942;-59
2022/01/01 07:03:05;;;;;;;22.97;18.27;;;;;;;2.18;100.00;97433.03;5042641;27;105706;-59
2022/01/01 07:05:32;;;;;;;24.87;19.03;;;;;;;2.10;100.00;97443.59;5008574;28;103803;-59
2022/01/01 07:08:00;;;;;;;25.50;19.60;;;;;;;2.11;100.00;97442.59;5008904;28;101989;-59
2022/01/01 07:10:27;;;;;;;24.17;18.60;;;;;;;2.16;100.00;97439.44;5008952;28;105179;-59
2022/01/01 07:12:55;;;;;;;24.80;18.27;;;;;;;2.25;100.00;97443.69;5008360;28;105048;-59
2022/01/01 07:15:24;;;;;;;22.23;17.80;;;;;;;2.00;100.00;97442.16;5008788;28;101879;-59
2022/01/01 07:17:53;;;;;;;23.57;18.70;;;;;;;1.90;100.00;97433.69;5026037;28;105166;-59
2022/01/01 07:20:19;;;;;;;24.63;19.20;;;;;;;1.94;100.00;97441.06;5031397;28;104122;-60
2022/01/01 07:22:47;;;;;;;25.60;18.97;;;;;;;2.00;100.00;97445.59;5028228;28;104831;-59
2022/01/01 07:25:15;;;;;;;22.60;18.77;;;;;;;1.94;100.00;97446.31;5027991;28;105384;-59
2022/01/01 07:27:44;;;;;;;23.77;18.30;;;;;;;1.97;100.00;97445.94;5028460;28;101840;-59
2022/01/01 07:30:12;;;;;;;25.40;20.07;;;;;;;2.03;100.00;97439.22;5062943;27;105099;-59
2022/01/01 07:32:42;;;;;;;27.30;20.23;;;;;;;2.04;100.00;97438.22;5029622;28;102592;-59
2022/01/01 07:35:09;;;;;;;28.37;20.70;;;;;;;2.03;100.00;97433.97;5029898;28;101745;-59
2022/01/01 07:37:36;;;;;;;27.00;20.57;;;;;;;2.14;100.00;97439.63;5029995;28;102511;-59
2022/01/01 07:40:05;;;;;;;30.77;21.90;;;;;;;2.20;100.00;97435.50;5027899;28;105482;-60
2022/01/01 07:42:33;;;;;;;27.20;21.13;;;;;;;2.20;100.00;97438.13;5032119;28;101933;-60
2022/01/01 07:45:00;;;;;;;29.00;21.97;;;;;;;2.44;100.00;97437.97;5027986;28;105197;-59
2022/01/01 07:47:29;;;;;;;28.30;22.27;;;;;;;2.62;100.00;97441.13;5030128;27;102141;-60
2022/01/01 07:49:57;;;;;;;32.80;23.20;;;;;;;2.71;100.00;97440.06;5028291;28;105210;-60
2022/01/01 07:52:25;;;;;;;31.43;23.60;;;;;;;2.78;100.00;97430.50;5027969;28;105280;-60
2022/01/01 07:54:52;;;;;;;28.40;22.37;;;;;;;2.93;100.00;97433.97;5028372;28;101905;-59
2022/01/01 07:57:19;;;;;;;31.27;22.97;;;;;;;2.99;100.00;97430.63;5028302;28;105572;-59
2022/01/01 07:59:46;;;;;;;28.10;20.83;;;;;;;3.10;100.00;97440.72;5027604;28;105245;-59
2022/01/01 08:02:13;;;;;;;24.33;19.37;;;;;;;3.19;100.00;97437.03;5027947;28;101999;-59
2022/01/01 08:04:40;;;;;;;24.83;20.87;;;;;;;3.23;100.00;97433.84;5031184;28;105603;-60
2022/01/01 08:07:09;;;;;;;25.03;20.00;;;;;;;3.32;100.00;97430.16;5028032;28;101975;-60
2022/01/01 08:09:38;;;;;;;24.07;18.60;;;;;;;3.35;100.00;97431.59;5028017;28;105587;-60
2022/01/01 08:12:07;;;;;;;21.83;17.97;;;;;;;3.45;100.00;97426.91;5027039;28;106197;-60
2022/01/01 08:14:34;;;;;;;19.40;16.80;;;;;;;3.52;100.00;97420.75;5028044;28;101933;-60
2022/01/01 08:17:04;;;;;;;20.10;16.90;;;;;;;3.61;100.00;97418.84;5028188;28;105163;-60
2022/01/01 08:19:32;;;;;;;21.30;17.47;;;;;;;3.74;100.00;97419.00;5027502;28;105468;-60
2022/01/01 08:21:59;;;;;;;20.37;17.30;;;;;;;3.81;100.00;97414.63;5027824;28;102239;-59
2022/01/01 08:24:29;;;;;;;20.23;16.70;;;;;;;3.94;100.00;97407.72;5030816;28;104783;-59
2022/01/01 08:26:56;;;;;;;19.10;15.53;;;;;;;3.89;100.00;97415.38;5027927;28;102104;-60
2022/01/01 08:29:24;;;;;;;17.77;15.20;;;;;;;4.07;100.00;97412.31;5028694;28;102590;-59
2022/01/01 08:31:51;;;;;;;19.70;16.13;;;;;;;4.09;100.00;97412.97;5027392;28;103651;-59
2022/01/01 08:34:19;;;;;;;17.27;14.13;;;;;;;4.10;100.00;97404.06;5027677;28;101893;-59
2022/01/01 08:36:46;;;;;;;18.63;14.90;;;;;;;4.14;100.00;97405.34;5029240;28;102721;-59
2022/01/01 08:39:13;;;;;;;17.60;14.43;;;;;;;4.21;100.00;97406.22;5026878;28;105867;-60
2022/01/01 08:41:42;;;;;;;17.77;14.23;;;;;;;4.37;100.00;97404.16;5029236;28;101740;-60
2022/01/01 08:44:09;;;;;;;16.87;14.53;;;;;;;4.43;100.00;97410.50;5027836;28;105507;-60
2022/01/01 08:46:36;;;;;;;17.67;15.00;;;;;;;4.51;100.00;97400.66;5030760;28;105692;-59
2022/01/01 08:49:05;;;;;;;19.43;14.67;;;;;;;4.56;100.00;97402.72;5027480;28;105640;-59
2022/01/01 08:51:37;;;;;;;18.73;15.47;;;;;;;4.70;100.00;97401.84;5026844;28;104962;-60
2022/01/01 08:54:05;;;;;;;17.97;14.70;;;;;;;4.89;100.00;97401.19;5061861;27;101852;-59
2022/01/01 08:56:32;;;;;;;17.67;14.33;;;;;;;4.99;100.00;97401.69;5026963;28;104975;-59
2022/01/01 08:59:01;;;;;;;16.57;14.77;;;;;;;5.04;100.00;97394.03;5027072;28;105094;-59
2022/01/01 09:01:29;;;;;;;16.93;14.93;;;;;;;5.08;100.00;97396.09;5027288;28;101813;-59
2022/01/01 09:03:56;;;;;;;15.17;13.57;;;;;;;5.18;100.00;97396.56;5027410;28;105387;-59
2022/01/01 09:06:23;;;;;;;16.53;14.40;;;;;;;5.35;100.00;97405.00;5028010;28;103134;-60
2022/01/01 09:08:52;;;;;;;15.03;12.80;;;;;;;5.71;100.00;97395.06;5029822;28;102011;-60
2022/01/01 09:11:19;;;;;;;15.53;13.53;;;;;;;5.93;100.00;97399.25;5026444;28;103752;-59
2022/01/01 09:13:46;;;;;;;17.03;14.03;;;;;;;5.95;100.00;97399.91;5026303;28;101923;-59
2022/01/01 09:16:16;;;;;;;15.07;12.67;;;;;;;6.15;100.00;97406.88;5027154;28;105156;-60
2022/01/01 09:18:45;;;;;;;15.03;13.23;;;;;;;6.23;100.00;97413.81;5026854;28;105131;-59
2022/01/01 09:21:13;;;;;;;13.60;11.97;;;;;;;6.20;100.00;97408.91;5027477;28;101758;-59
2022/01/01 09:23:41;;;;;;;13.57;11.67;;;;;;;6.37;100.00;97410.19;5028328;28;102453;-59
2022/01/01 09:26:08;;;;;;;12.93;11.47;;;;;;;6.30;100.00;97419.91;5028128;28;104257;-59
2022/01/01 09:28:37;;;;;;;12.10;10.80;;;;;;;6.33;100.00;97425.63;5027063;28;102024;-62
2022/01/01 09:31:04;;;;;;;12.03;10.73;;;;;;;6.46;100.00;97423.03;5029625;28;105568;-59
2022/01/01 09:33:33;;;;;;;12.00;10.23;;;;;;;6.68;100.00;97432.44;5026565;28;101909;-59
2022/01/01 09:36:04;;;;;;;12.30;10.63;;;;;;;6.74;100.00;97442.19;5023890;28;104295;-59
2022/01/01 09:38:35;;;;;;;12.57;10.47;;;;;;;6.82;100.00;97442.00;5027323;27;102832;-59
2022/01/01 09:41:04;;;;;;;10.53;9.27;;;;;;;6.96;100.00;97437.53;5026342;28;101989;-59
2022/01/01 09:43:33;;;;;;;11.13;9.60;;;;;;;6.98;100.00;97430.22;5032047;28;102365;-59
2022/01/01 09:46:02;;;;;;;11.47;9.67;;;;;;;7.04;100.00;97438.16;5030384;28;105691;-63
2022/01/01 09:48:30;;;;;;;9.80;8.80;;;;;;;7.22;100.00;97442.84;5031380;28;101972;-59
2022/01/01 09:51:01;;;;;;;10.67;8.73;;;;;;;7.32;100.00;97443.25;5031256;28;105045;-59
2022/01/01 09:53:30;;;;;;;11.30;9.60;;;;;;;7.54;100.00;97447.31;5034349;28;104515;-59
2022/01/01 09:55:58;;;;;;;10.57;9.23;;;;;;;7.42;100.00;97448.97;5031034;28;104100;-59
2022/01/01 09:58:27;;;;;;;10.40;9.00;;;;;;;7.52;100.00;97446.72;5030365;28;105670;-59
2022/01/01 10:00:55;;;;;;;11.07;9.60;;;;;;;7.55;100.00;97446.28;5032114;28;101794;-59
2022/01/01 10:03:28;;;;;;;11.87;9.57;;;;;;;7.67;100.00;97448.09;5032601;28;102452;-59
2022/01/01 10:06:02;;;;;;;10.00;8.90;;;;;;;7.71;100.00;97444.03;5030046;28;105021;-59
2022/01/01 10:08:29;;;;;;;9.73;8.57;;;;;;;7.88;100.00;97439.09;5032517;28;101893;-59
2022/01/01 10:10:57;;;;;;;11.40;9.80;;;;;;;7.84;100.00;97432.56;5031103;28;105165;-59
2022/01/01 10:13:32;;;;;;;11.30;9.07;;;;;;;7.94;100.00;97440.91;5029894;28;105116;-59
2022/01/01 10:16:01;;;;;;;10.60;9.40;;;;;;;8.22;100.00;97436.16;5034394;28;101813;-59
2022/01/01 10:18:30;;;;;;;11.87;9.50;;;;;;;8.55;100.00;97447.41;5030076;28;105470;-59
2022/01/01 10:21:02;;;;;;;9.80;8.50;;;;;;;8.85;100.00;97441.34;5030798;28;102216;-59
2022/01/01 10:23:31;;;;;;;9.83;8.80;;;;;;;9.07;100.00;97436.50;5031082;28;105242;-59
2022/01/01 10:29:15;;;;;;;10.83;8.80;;;;;;;9.36;100.00;97443.81;4993879;28;101939;-60
2022/01/01 10:31:55;;;;;;;9.57;8.57;;;;;;;9.09;100.00;97445.88;5030754;28;105124;-59
2022/01/01 10:34:23;;;;;;;9.47;8.50;;;;;;;9.34;100.00;97438.75;5029919;28;104991;-59
2022/01/01 10:36:53;;;;;;;9.43;8.50;;;;;;;9.38;100.00;97437.25;5035330;27;101950;-60
2022/01/01 10:39:21;;;;;;;11.10;9.37;;;;;;;9.57;100.00;97448.75;5029934;28;105044;-59
2022/01/01 10:41:51;;;;;;;9.83;8.83;;;;;;;9.68;100.00;97440.88;5030627;28;101946;-60
2022/01/01 10:44:23;;;;;;;10.33;9.10;;;;;;;9.89;100.00;97445.78;5030458;28;104870;-60
2022/01/01 10:46:50;;;;;;;9.23;8.33;;;;;;;9.97;100.00;97447.34;5031264;28;102541;-59
2022/01/01 10:52:20;;;;;;;9.50;8.50;;;;;;;10.09;100.00;97448.25;5020750;27;102384;-59
2022/01/01 10:54:52;;;;;;;12.20;8.97;;;;;;;10.12;100.00;97438.00;5029644;28;104199;-59
2022/01/01 10:57:27;;;;;;;10.00;8.57;;;;;;;10.11;100.00;97438.22;5030175;28;101934;-60
2022/01/01 11:00:09;;;;;;;9.83;8.83;;;;;;;10.10;100.00;97428.63;5033213;28;104103;-59
2022/01/01 11:02:37;;;;;;;9.63;8.63;;;;;;;10.18;100.00;97422.97;5031595;27;101694;-59
2022/01/01 11:05:07;;;;;;;11.20;9.90;;;;;;;9.92;100.00;97428.59;5029815;28;104762;-59
2022/01/01 11:07:36;;;;;;;11.03;9.77;;;;;;;10.15;100.00;97420.78;5029269;28;105088;-59
2022/01/01 11:10:05;;;;;;;9.67;8.67;;;;;;;9.93;100.00;97428.34;5030391;28;102105;-59
2022/01/01 11:12:33;;;;;;;10.40;9.13;;;;;;;10.06;100.00;97428.25;5030036;28;102931;-59
2022/01/01 11:15:03;;;;;;;10.23;9.03;;;;;;;9.89;100.00;97419.22;5029466;28;105424;-59
2022/01/01 11:17:31;;;;;;;9.97;8.90;;;;;;;10.26;100.00;97417.38;5030194;28;101948;-59
2022/01/01 11:20:00;;;;;;;9.73;8.73;;;;;;;10.78;100.00;97406.03;5029639;28;105145;-59
2022/01/01 11:22:28;;;;;;;9.90;8.80;;;;;;;10.76;100.00;97402.78;5034000;28;103135;-59